Time;durP1;ratioP1;P1;durP2;ratioP2;P2;SDS_P1;SDS_P2;PMS_P1;PMS_P2;Temp;Humidity;BMP_temperature;BMP_pressure;BME280_temperature;BME280_humidity;BME280_pressure;Samples;Min_cycle;Max_cycle;Signal;HPM_P1;HPM_P2
2021/12/05 00:17:13;;;;;;;97.50;89.10;;;;;;;2.79;100.00;100678.47;5101200;28;20128;-81
2021/12/05 00:20:02;;;;;;;;;;;;;;;2.97;100.00;100676.56;5104602;28;20055;-80
2021/12/05 00:22:35;;;;;;;113.43;103.80;;;;;;;2.90;100.00;100676.34;5103777;28;19931;-80
2021/12/05 00:25:04;;;;;;;99.78;91.00;;;;;;;2.82;100.00;100684.22;5102756;28;20048;-80
2021/12/05 00:27:36;;;;;;;91.85;83.03;;;;;;;2.69;100.00;100679.38;5113358;28;20062;-81
2021/12/05 00:30:19;;;;;;;93.43;84.88;;;;;;;2.75;100.00;100678.75;5105242;28;20051;-79
2021/12/05 00:32:51;;;;;;;102.68;93.70;;;;;;;2.87;100.00;100678.47;5105045;28;20048;-80
2021/12/05 00:35:59;;;;;;;107.72;98.03;;;;;;;2.84;100.00;100678.78;5111757;28;20487;-79
2021/12/05 00:46:56;;;;;;;114.75;105.05;;;;;;;2.60;100.00;100685.53;5101479;28;20071;-81
2021/12/05 00:49:57;;;;;;;101.50;92.47;;;;;;;2.68;100.00;100685.59;5105076;28;20091;-78
2021/12/05 00:53:03;;;;;;;113.78;104.32;;;;;;;2.81;100.00;100681.72;5107094;28;20059;-81
2021/12/05 00:55:45;;;;;;;103.57;94.78;;;;;;;2.81;100.00;100672.06;5109639;28;20395;-79
2021/12/05 01:07:04;;;;;;;87.22;78.85;;;;;;;2.58;100.00;100674.41;5103394;28;20059;-81
2021/12/05 01:09:39;;;;;;;97.55;89.15;;;;;;;2.63;100.00;100655.56;5100463;28;20476;-80
2021/12/05 01:12:32;;;;;;;100.47;91.25;;;;;;;2.76;100.00;100658.59;5106652;28;20373;-79
2021/12/05 01:15:04;;;;;;;81.57;73.60;;;;;;;2.52;100.00;100652.25;5105582;28;20128;-81
2021/12/05 01:17:38;;;;;;;97.20;88.32;;;;;;;2.48;100.00;100652.69;5105279;28;20113;-80
2021/12/05 01:20:12;;;;;;;95.85;87.18;;;;;;;2.37;100.00;100647.72;5100132;28;20436;-80
2021/12/05 01:22:44;;;;;;;89.95;82.20;;;;;;;2.23;100.00;100641.22;5103879;28;20069;-81
2021/12/05 01:25:26;;;;;;;91.57;83.35;;;;;;;2.17;100.00;100634.78;5106902;28;20123;-79
2021/12/05 01:28:00;;;;;;;98.30;89.63;;;;;;;2.24;100.00;100635.84;5103137;28;20050;-81
2021/12/05 01:30:36;;;;;;;101.43;92.10;;;;;;;2.18;100.00;100631.22;5105890;28;20475;-79
2021/12/05 01:33:10;;;;;;;111.00;101.45;;;;;;;2.22;100.00;100629.09;5105979;28;20058;-78
2021/12/05 01:35:53;;;;;;;102.20;93.10;;;;;;;2.29;100.00;100619.66;5104235;28;20396;-81
2021/12/05 01:38:31;;;;;;;120.38;98.05;;;;;;;2.52;100.00;100627.81;5108586;28;20135;-79
2021/12/05 01:41:23;;;;;;;97.35;88.20;;;;;;;2.29;100.00;100624.88;5108338;28;20484;-81
2021/12/05 01:44:26;;;;;;;93.45;84.40;;;;;;;2.44;100.00;100625.16;5103300;28;20053;-80
2021/12/05 01:47:22;;;;;;;91.57;82.95;;;;;;;2.39;100.00;100619.53;5110105;28;20469;-81
2021/12/05 01:50:15;;;;;;;102.28;92.90;;;;;;;2.43;100.00;100620.88;5107820;28;20058;-79
2021/12/05 01:58:38;;;;;;;101.95;92.88;;;;;;;2.22;100.00;100635.16;5111761;28;20054;-80
2021/12/05 02:09:55;;;;;;;96.82;88.50;;;;;;;2.28;100.00;100626.69;5066682;28;20043;-79
2021/12/05 02:29:43;;;;;;;108.38;98.50;;;;;;;2.43;100.00;100613.84;5107568;28;20109;-79
2021/12/05 02:35:21;;;;;;;99.53;90.22;;;;;;;2.36;100.00;100618.06;5084093;28;20051;-80
2021/12/05 02:38:36;;;;;;;107.80;97.35;;;;;;;2.48;100.00;100626.47;5104824;28;20055;-78
2021/12/05 02:41:16;;;;;;;101.05;91.78;;;;;;;2.30;100.00;100618.69;5105749;28;20550;-81
2021/12/05 02:43:46;;;;;;;94.03;84.90;;;;;;;2.21;100.00;100624.81;5103836;28;20071;-78
2021/12/05 02:46:14;;;;;;;99.50;89.85;;;;;;;2.19;100.00;100630.22;5105222;28;20458;-80
2021/12/05 02:48:43;;;;;;;109.15;99.03;;;;;;;2.32;100.00;100624.56;5107694;28;20075;-80
2021/12/05 02:51:14;;;;;;;104.35;94.95;;;;;;;2.43;100.00;100619.09;5105715;28;20412;-79
2021/12/05 02:53:46;;;;;;;103.63;93.78;;;;;;;2.40;100.00;100621.19;5106617;28;20117;-81
2021/12/05 02:56:16;;;;;;;104.80;95.40;;;;;;;2.40;100.00;100629.06;5105590;28;20392;-80
2021/12/05 02:58:48;;;;;;;87.65;78.82;;;;;;;2.44;100.00;100625.16;5104692;28;20052;-80
2021/12/05 03:01:20;;;;;;;;;;;;;;;2.38;100.00;100631.00;5181293;22;20055;-80
2021/12/05 03:03:50;;;;;;;93.35;84.55;;;;;;;2.23;100.00;100609.78;4981455;28;19961;-80
2021/12/05 03:06:22;;;;;;;102.72;93.28;;;;;;;2.16;100.00;100604.34;4986939;28;20079;-79
2021/12/05 03:08:52;;;;;;;95.45;85.05;;;;;;;2.11;100.00;100616.25;4988947;28;20134;-79
2021/12/05 03:11:20;;;;;;;102.80;92.65;;;;;;;2.07;100.00;100613.13;4991293;28;20055;-80
2021/12/05 03:13:46;;;;;;;109.72;99.28;;;;;;;2.12;100.00;100613.50;4991395;28;20050;-79
2021/12/05 03:16:15;;;;;;;108.50;97.97;;;;;;;2.19;100.00;100613.69;4987602;28;20686;-80
2021/12/05 03:18:43;;;;;;;115.15;104.47;;;;;;;2.11;100.00;100601.34;4984201;28;20482;-79
2021/12/05 03:21:10;;;;;;;116.10;104.80;;;;;;;1.92;100.00;100604.97;4985477;28;20400;-80
2021/12/05 03:23:39;;;;;;;104.95;94.78;;;;;;;1.91;100.00;100607.78;4986039;28;20057;-79
2021/12/05 03:26:11;;;;;;;112.85;102.53;;;;;;;1.91;100.00;100613.81;4983781;28;20495;-80
2021/12/05 03:28:39;;;;;;;107.85;97.43;;;;;;;1.95;100.00;100615.16;4980676;28;20047;-79
2021/12/05 03:31:07;;;;;;;110.90;100.03;;;;;;;2.00;100.00;100599.00;4981758;28;20128;-80
2021/12/05 03:33:35;;;;;;;104.05;93.93;;;;;;;1.88;100.00;100605.47;4986107;28;20074;-80
2021/12/05 03:36:03;;;;;;;108.82;99.10;;;;;;;1.75;100.00;100608.44;4981287;28;20497;-81
2021/12/05 03:38:30;;;;;;;93.00;83.90;;;;;;;1.74;100.00;100612.03;4988706;28;20446;-80
2021/12/05 03:40:57;;;;;;;94.55;85.50;;;;;;;1.77;100.00;100611.75;4936820;28;20931;-79
2021/12/05 03:43:27;;;;;;;83.68;75.43;;;;;;;1.76;100.00;100617.97;4950485;29;20444;-80
2021/12/05 03:45:57;;;;;;;111.70;101.82;;;;;;;2.84;100.00;100621.06;4942934;29;20570;-77
2021/12/05 03:48:27;;;;;;;97.80;89.38;;;;;;;2.02;100.00;100618.81;4940121;29;20106;-78
2021/12/05 03:50:55;;;;;;;98.07;89.18;;;;;;;1.91;100.00;100621.69;4945199;29;20109;-79
2021/12/05 03:53:22;;;;;;;102.20;93.22;;;;;;;1.78;100.00;100616.81;4943835;29;20058;-79
2021/12/05 03:55:52;;;;;;;102.50;92.90;;;;;;;1.77;100.00;100616.97;4942870;29;20048;-78
2021/12/05 03:58:20;;;;;;;99.15;89.55;;;;;;;1.71;100.00;100621.03;4939227;29;20055;-80
2021/12/05 04:00:51;;;;;;;100.97;91.75;;;;;;;1.80;100.00;100622.72;4941990;29;20059;-80
2021/12/05 04:03:20;;;;;;;114.22;104.30;;;;;;;1.76;100.00;100621.41;4943587;29;20122;-79
2021/12/05 04:05:48;;;;;;;115.13;103.93;;;;;;;1.66;100.00;100630.28;4941573;29;20047;-80
2021/12/05 04:08:18;;;;;;;103.45;93.70;;;;;;;1.63;100.00;100627.97;4946723;29;20043;-79
2021/12/05 04:10:51;;;;;;;91.97;82.07;;;;;;;1.72;100.00;100620.03;4943182;29;20091;-80
2021/12/05 04:13:19;;;;;;;92.25;82.65;;;;;;;1.65;100.00;100632.09;4939126;29;20110;-79
2021/12/05 04:15:49;;;;;;;86.38;77.03;;;;;;;1.59;100.00;100627.47;4947097;29;20052;-79
2021/12/05 04:18:15;;;;;;;102.35;92.47;;;;;;;1.51;100.00;100628.22;4943429;29;20056;-79
2021/12/05 04:20:42;;;;;;;87.85;78.82;;;;;;;1.47;100.00;100634.69;4944997;29;20443;-78
2021/12/05 04:23:09;;;;;;;88.80;79.45;;;;;;;1.56;100.00;100639.03;4945159;29;20139;-79
2021/12/05 04:25:37;;;;;;;98.22;88.25;;;;;;;1.54;100.00;100627.91;4942978;29;20472;-80
2021/12/05 04:28:06;;;;;;;96.03;86.90;;;;;;;1.52;100.00;100632.47;4945929;29;20150;-79
2021/12/05 04:30:33;;;;;;;93.50;84.13;;;;;;;1.53;100.00;100626.25;4943955;29;20055;-80
2021/12/05 04:33:02;;;;;;;96.28;86.68;;;;;;;1.57;100.00;100634.63;4944667;29;20043;-80
2021/12/05 04:35:28;;;;;;;93.57;84.75;;;;;;;1.47;100.00;100647.78;4944501;29;20103;-80
2021/12/05 04:37:55;;;;;;;97.13;87.60;;;;;;;1.46;100.00;100648.78;4942687;29;20456;-80
2021/12/05 04:40:23;;;;;;;89.60;80.72;;;;;;;1.54;100.00;100658.47;4944356;29;20520;-79
2021/12/05 04:42:49;;;;;;;96.25;87.18;;;;;;;1.66;100.00;100648.63;4947328;29;20055;-82
2021/12/05 04:45:21;;;;;;;80.90;72.25;;;;;;;1.71;100.00;100641.16;4944423;29;20059;-79
2021/12/05 04:47:49;;;;;;;85.10;75.85;;;;;;;1.67;100.00;100637.19;4944571;29;20480;-81
2021/12/05 04:50:17;;;;;;;86.88;77.90;;;;;;;1.68;100.00;100638.81;4947143;29;20134;-79
2021/12/05 04:52:45;;;;;;;95.28;85.55;;;;;;;1.65;100.00;100647.81;4943887;29;20447;-80
2021/12/05 04:55:13;;;;;;;98.00;88.15;;;;;;;1.71;100.00;100654.25;4942010;29;20070;-79
2021/12/05 04:57:41;;;;;;;97.78;87.95;;;;;;;1.66;100.00;100649.44;4949473;28;20043;-81
2021/12/05 05:00:12;;;;;;;83.85;74.78;;;;;;;1.69;100.00;100661.41;4946523;29;20093;-80
2021/12/05 05:02:39;;;;;;;94.25;84.43;;;;;;;1.64;100.00;100666.28;4945010;29;20067;-80
2021/12/05 05:05:06;;;;;;;88.07;78.57;;;;;;;1.55;100.00;100654.91;4946257;29;20107;-80
2021/12/05 05:07:37;;;;;;;98.30;87.65;;;;;;;1.68;100.00;100646.69;4946146;29;20052;-79
2021/12/05 05:10:10;;;;;;;102.22;92.55;;;;;;;2.37;100.00;100653.78;4950667;29;20047;-81
2021/12/05 05:12:36;;;;;;;87.00;78.45;;;;;;;1.58;100.00;100658.06;4947720;29;20048;-78
2021/12/05 05:15:04;;;;;;;89.53;80.43;;;;;;;1.43;100.00;100650.88;4955321;29;20051;-82
2021/12/05 05:17:39;;;;;;;99.88;89.72;;;;;;;1.45;100.00;100652.34;4954647;29;20047;-79
2021/12/05 05:20:19;;;;;;;101.75;91.28;;;;;;;1.39;100.00;100660.78;4951002;29;20070;-79
2021/12/05 05:23:01;;;;;;;101.05;88.82;;;;;;;1.41;100.00;100652.81;4946544;29;20051;-81
2021/12/05 05:28:30;;;;;;;117.55;105.57;;;;;;;1.45;100.00;100659.38;4941427;29;20309;-81
2021/12/05 05:45:21;;;;;;;118.97;106.65;;;;;;;1.27;100.00;100654.09;4946695;29;20055;-80
2021/12/05 05:48:03;;;;;;;100.85;83.20;;;;;;;1.22;100.00;100646.72;4945665;29;20519;-81
2021/12/05 05:50:30;;;;;;;94.72;80.65;;;;;;;1.25;100.00;100643.00;4951643;29;20139;-80
2021/12/05 05:52:57;;;;;;;88.38;78.75;;;;;;;1.13;100.00;100644.97;4946522;29;20111;-80
2021/12/05 05:55:25;;;;;;;106.45;95.25;;;;;;;1.09;100.00;100648.84;4947018;29;20501;-81
2021/12/05 05:58:02;;;;;;;111.25;99.20;;;;;;;1.18;100.00;100647.16;4939569;29;20052;-80
2021/12/05 06:00:35;;;;;;;149.60;119.30;;;;;;;1.16;100.00;100651.72;4943581;29;20052;-80
2021/12/05 06:03:22;;;;;;;133.70;117.35;;;;;;;0.97;100.00;100647.38;4946693;29;20475;-81
2021/12/05 06:05:51;;;;;;;123.47;110.57;;;;;;;1.02;100.00;100674.75;4943320;29;20502;-80
2021/12/05 06:08:19;;;;;;;124.05;111.28;;;;;;;0.97;100.00;100670.94;4947544;29;20058;-81
2021/12/05 06:10:47;;;;;;;132.82;116.03;;;;;;;1.07;100.00;100682.19;4944862;29;20055;-81
2021/12/05 06:13:16;;;;;;;122.53;109.25;;;;;;;1.00;100.00;100692.41;4940589;29;20456;-81
2021/12/05 06:15:43;;;;;;;139.07;124.32;;;;;;;0.94;100.00;100689.53;4944777;29;20393;-80
2021/12/05 06:18:09;;;;;;;128.82;115.43;;;;;;;0.97;100.00;100687.47;4946871;29;20115;-80
2021/12/05 06:20:36;;;;;;;114.82;103.60;;;;;;;0.94;100.00;100677.28;4946859;29;20051;-81
2021/12/05 06:23:03;;;;;;;104.95;94.30;;;;;;;1.09;100.00;100667.16;4946773;29;20054;-80
2021/12/05 06:25:34;;;;;;;101.93;91.05;;;;;;;1.11;100.00;100673.06;4945207;29;20107;-80
2021/12/05 06:28:08;;;;;;;100.70;88.35;;;;;;;1.12;100.00;100662.47;4938888;29;20078;-80
2021/12/05 06:30:45;;;;;;;92.95;83.50;;;;;;;1.15;100.00;100669.22;4945398;29;20400;-80
2021/12/05 06:41:35;;;;;;;100.45;90.57;;;;;;;0.98;100.00;100691.72;4935459;29;20523;-81
2021/12/05 06:46:48;;;;;;;92.70;83.80;;;;;;;1.26;100.00;100676.03;4946743;29;20139;-79
2021/12/05 06:49:15;;;;;;;92.85;84.10;;;;;;;1.38;100.00;100664.38;4944888;29;20451;-81
2021/12/05 06:51:42;;;;;;;94.55;85.85;;;;;;;1.36;100.00;100672.41;4948734;29;20459;-81
2021/12/05 06:54:09;;;;;;;82.00;74.60;;;;;;;1.29;100.00;100673.94;4948659;29;20063;-80
2021/12/05 06:56:36;;;;;;;86.68;79.65;;;;;;;1.33;100.00;100688.41;4954274;29;20062;-81
2021/12/05 06:59:04;;;;;;;90.53;82.88;;;;;;;1.51;100.00;100687.56;4951484;29;20047;-81
2021/12/05 07:01:31;;;;;;;87.82;80.43;;;;;;;1.28;100.00;100690.63;4946608;29;20048;-81
2021/12/05 07:04:04;;;;;;;88.05;81.07;;;;;;;1.46;100.00;100703.75;4950165;29;20055;-81
2021/12/05 07:06:32;;;;;;;91.45;84.18;;;;;;;1.46;100.00;100711.59;4949763;29;20051;-80
2021/12/05 07:09:03;;;;;;;90.63;83.72;;;;;;;1.38;100.00;100721.97;4949165;29;20047;-80
2021/12/05 07:11:36;;;;;;;92.03;85.10;;;;;;;1.41;100.00;100707.75;4946116;29;20059;-80
2021/12/05 07:14:32;;;;;;;84.65;77.65;;;;;;;1.33;100.00;100709.31;4950260;29;20059;-80
2021/12/05 07:17:03;;;;;;;80.22;74.00;;;;;;;1.22;100.00;100708.69;4946971;29;20146;-81
2021/12/05 07:19:42;;;;;;;86.95;80.07;;;;;;;1.46;100.00;100708.16;4948142;29;20059;-81
2021/12/05 07:22:18;;;;;;;84.88;78.45;;;;;;;1.02;100.00;100697.47;4945113;28;20464;-80
2021/12/05 07:24:49;;;;;;;85.95;79.18;;;;;;;1.16;100.00;100702.25;4950894;29;20061;-80
2021/12/05 07:41:13;;;;;;;84.05;77.07;;;;;;;1.11;100.00;100692.19;4951274;29;20102;-80
2021/12/05 07:43:40;;;;;;;86.85;80.05;;;;;;;1.11;100.00;100691.38;4948357;29;20051;-81
2021/12/05 07:46:08;;;;;;;88.05;81.15;;;;;;;1.24;100.00;100680.56;4948892;29;20059;-82
2021/12/05 07:48:38;;;;;;;91.97;84.57;;;;;;;1.41;100.00;100678.97;4951202;29;20121;-79
2021/12/05 07:51:09;;;;;;;93.32;85.78;;;;;;;1.14;100.00;100681.44;4951754;29;20138;-80
2021/12/05 07:53:46;;;;;;;86.22;79.35;;;;;;;0.85;100.00;100675.53;4948027;29;20094;-80
2021/12/05 07:56:18;;;;;;;95.60;87.97;;;;;;;1.27;100.00;100672.44;4946914;29;20472;-80
2021/12/05 07:59:09;;;;;;;95.22;87.80;;;;;;;1.24;100.00;100663.09;4948172;29;20047;-79
2021/12/05 08:15:22;;;;;;;90.70;81.72;;;;;;;1.17;100.00;100659.41;4950562;29;20388;-80
2021/12/05 08:17:52;;;;;;;84.47;75.28;;;;;;;1.19;100.00;100665.31;4943403;29;20061;-80
2021/12/05 08:20:23;;;;;;;80.35;72.15;;;;;;;1.13;100.00;100671.97;4944455;29;20054;-81
2021/12/05 08:22:50;;;;;;;84.20;75.10;;;;;;;1.29;100.00;100679.16;4952033;29;20051;-81
2021/12/05 08:25:19;;;;;;;92.03;82.82;;;;;;;1.36;100.00;100677.63;4953580;29;20043;-81
2021/12/05 08:27:49;;;;;;;90.13;80.53;;;;;;;1.43;100.00;100690.13;4946656;29;20051;-81
2021/12/05 08:30:25;;;;;;;82.10;74.38;;;;;;;1.38;100.00;100690.56;4950378;29;20122;-81
2021/12/05 08:33:13;;;;;;;92.53;83.68;;;;;;;1.32;100.00;100681.50;4940762;29;20051;-81
2021/12/05 08:36:11;;;;;;;87.05;78.53;;;;;;;1.32;100.00;100683.28;4944850;29;20502;-80
2021/12/05 09:29:21;;;;;;;94.03;85.43;;;;;;;1.89;100.00;100675.19;4940948;29;20106;-80
2021/12/05 09:40:28;;;;;;;105.40;94.97;;;;;;;2.04;100.00;100629.97;4945683;29;20070;-80
2021/12/05 10:02:38;;;;;;;111.95;101.15;;;;;;;2.27;100.00;100625.06;4952053;29;20113;-80
2021/12/05 10:08:21;;;;;;;123.68;108.55;;;;;;;2.17;100.00;100613.84;4948876;29;20109;-80
2021/12/05 10:11:05;;;;;;;131.82;106.53;;;;;;;2.27;100.00;100614.56;4949524;29;20051;-81
2021/12/05 10:13:43;;;;;;;98.22;87.38;;;;;;;1.98;100.00;100622.72;4953262;29;20490;-81
2021/12/05 10:16:17;;;;;;;111.28;93.88;;;;;;;1.94;100.00;100613.53;4949275;29;20051;-80
2021/12/05 10:27:23;;;;;;;116.78;105.38;;;;;;;2.14;100.00;100611.53;4936980;29;20058;-81
2021/12/05 10:38:19;;;;;;;122.32;110.10;;;;;;;2.32;100.00;100616.72;4945535;29;20058;-80
2021/12/05 10:40:55;;;;;;;103.75;93.72;;;;;;;2.00;100.00;100617.34;4945440;29;20048;-79
2021/12/05 10:43:25;;;;;;;112.65;100.93;;;;;;;2.31;100.00;100603.78;4946890;29;20082;-81
2021/12/05 10:45:55;;;;;;;101.53;90.45;;;;;;;2.18;100.00;100583.19;4949476;29;20051;-80
2021/12/05 10:48:25;;;;;;;103.13;89.95;;;;;;;2.24;100.00;100582.59;4948741;29;20420;-79
2021/12/05 10:50:54;;;;;;;97.60;87.82;;;;;;;2.16;100.00;100575.50;4951061;29;20048;-81
2021/12/05 10:53:36;;;;;;;112.97;102.07;;;;;;;2.06;100.00;100577.44;4948981;29;20088;-80
2021/12/05 10:56:17;;;;;;;181.63;125.20;;;;;;;2.46;100.00;100578.63;4942917;29;20539;-79
2021/12/05 10:58:48;;;;;;;179.93;117.70;;;;;;;2.36;100.00;100573.50;4947118;29;20131;-80
2021/12/05 11:01:23;;;;;;;397.83;185.55;;;;;;;2.48;100.00;100566.16;4949937;29;20130;-80
2021/12/05 11:03:52;;;;;;;132.98;113.13;;;;;;;2.48;100.00;100558.31;4948006;29;20118;-80
2021/12/05 11:06:22;;;;;;;114.20;101.88;;;;;;;2.15;100.00;100552.06;4949427;29;20051;-79
2021/12/05 11:08:54;;;;;;;104.82;95.25;;;;;;;2.49;100.00;100555.53;4950926;29;20455;-81
2021/12/05 11:11:22;;;;;;;112.07;101.45;;;;;;;2.21;100.00;100557.53;4954090;29;20046;-80
2021/12/05 11:13:50;;;;;;;108.10;98.70;;;;;;;1.90;100.00;100548.47;4948516;29;20070;-80
2021/12/05 11:16:44;;;;;;;105.80;96.57;;;;;;;1.97;100.00;100547.72;4950263;29;20078;-79
2021/12/05 11:19:18;;;;;;;101.97;92.68;;;;;;;1.79;100.00;100549.56;4947225;29;20142;-80
2021/12/05 11:21:51;;;;;;;104.53;94.95;;;;;;;1.76;100.00;100555.09;4950187;29;20468;-80
2021/12/05 11:24:25;;;;;;;109.75;100.10;;;;;;;1.72;100.00;100557.19;4946831;28;20047;-79
2021/12/05 11:27:27;;;;;;;107.28;98.10;;;;;;;1.97;100.00;100554.78;4954762;29;20118;-80
2021/12/05 11:30:02;;;;;;;112.68;102.43;;;;;;;1.78;100.00;100558.38;4947265;29;20130;-80
2021/12/05 11:32:38;;;;;;;107.30;97.85;;;;;;;2.08;100.00;100554.50;4952497;29;20047;-80
2021/12/05 11:35:30;;;;;;;99.93;91.45;;;;;;;1.98;100.00;100544.13;4951862;29;20083;-80
2021/12/05 11:38:10;;;;;;;105.65;96.07;;;;;;;2.55;100.00;100550.66;4947762;28;20070;-79
2021/12/05 11:40:55;;;;;;;96.15;87.25;;;;;;;2.36;100.00;100536.81;4953103;28;20403;-80
2021/12/05 11:43:27;;;;;;;102.50;92.88;;;;;;;2.44;100.00;100536.81;4948775;28;20047;-82
2021/12/05 11:46:03;;;;;;;106.25;96.32;;;;;;;2.59;100.00;100518.69;4947144;29;20389;-81
2021/12/05 11:48:34;;;;;;;95.68;86.95;;;;;;;2.45;100.00;100517.50;4947967;28;20055;-81
2021/12/05 11:51:03;;;;;;;101.57;93.03;;;;;;;2.71;100.00;100509.56;4949462;29;20052;-80
2021/12/05 11:53:44;;;;;;;104.82;95.45;;;;;;;2.55;100.00;100506.06;4946031;28;20043;-80
2021/12/05 11:56:16;;;;;;;117.75;107.47;;;;;;;2.51;100.00;100516.03;4954301;28;20050;-82
2021/12/05 11:58:44;;;;;;;117.03;106.32;;;;;;;2.52;100.00;100501.97;4951458;29;20138;-80
2021/12/05 12:01:14;;;;;;;114.70;104.00;;;;;;;2.31;100.00;100493.69;4949871;29;20042;-80
2021/12/05 12:03:43;;;;;;;108.93;98.85;;;;;;;2.35;100.00;100484.53;4950764;28;20063;-81
2021/12/05 12:06:11;;;;;;;117.40;107.03;;;;;;;2.48;100.00;100484.91;4950644;28;20051;-81
2021/12/05 12:08:38;;;;;;;113.78;103.50;;;;;;;2.59;100.00;100479.38;4951489;28;20137;-81
2021/12/05 12:11:05;;;;;;;98.45;90.03;;;;;;;2.32;100.00;100472.56;4951714;28;20059;-81
2021/12/05 12:13:35;;;;;;;100.07;92.35;;;;;;;2.32;100.00;100474.34;4946887;29;20055;-80
2021/12/05 12:16:08;;;;;;;98.85;90.65;;;;;;;2.45;100.00;100478.19;4947749;28;20479;-80
2021/12/05 12:18:38;;;;;;;101.38;93.00;;;;;;;2.49;100.00;100478.69;4949014;29;20055;-79
2021/12/05 12:21:12;;;;;;;89.63;82.38;;;;;;;2.50;100.00;100470.66;4947780;28;20047;-81
2021/12/05 12:23:40;;;;;;;89.15;82.05;;;;;;;2.49;100.00;100468.19;4951357;29;20186;-83
2021/12/05 12:26:10;;;;;;;89.93;82.43;;;;;;;2.64;100.00;100456.13;4952092;28;20476;-80
2021/12/05 12:28:37;;;;;;;111.22;102.90;;;;;;;2.69;100.00;100455.63;4948593;29;20102;-81
2021/12/05 12:31:06;;;;;;;100.95;92.75;;;;;;;2.61;100.00;100453.81;4947998;28;20055;-81
2021/12/05 12:33:36;;;;;;;98.82;90.45;;;;;;;2.73;100.00;100465.66;4945108;28;20063;-80
2021/12/05 12:36:06;;;;;;;92.80;84.55;;;;;;;2.61;100.00;100471.34;4944849;29;20056;-81
2021/12/05 12:38:38;;;;;;;103.70;95.15;;;;;;;2.69;100.00;100487.09;4950899;29;20452;-79
2021/12/05 12:41:13;;;;;;;102.68;94.22;;;;;;;2.62;100.00;100484.28;4955200;28;20047;-81
2021/12/05 12:43:44;;;;;;;107.57;98.72;;;;;;;2.66;100.00;100484.78;4942657;29;20135;-82
2021/12/05 12:46:34;;;;;;;110.43;100.95;;;;;;;2.45;100.00;100499.16;4950538;28;20114;-80
2021/12/05 12:49:29;;;;;;;116.28;105.18;;;;;;;2.52;100.00;100497.53;4947501;29;20055;-81
2021/12/05 12:52:03;;;;;;;127.50;114.90;;;;;;;2.64;100.00;100499.88;4942290;29;20138;-80
2021/12/05 12:54:33;;;;;;;120.93;108.20;;;;;;;2.51;100.00;100505.56;4944459;29;20055;-79
2021/12/05 12:57:11;;;;;;;113.75;102.43;;;;;;;2.59;100.00;100502.97;4936963;29;20536;-80
2021/12/05 12:59:41;;;;;;;119.18;108.47;;;;;;;2.64;100.00;100507.75;4944657;29;20059;-81
2021/12/05 13:05:18;;;;;;;133.70;121.65;;;;;;;6.54;100.00;100500.00;4942818;29;20192;-80
2021/12/05 13:10:30;;;;;;;93.85;82.95;;;;;;;2.58;100.00;100508.38;4946311;29;20446;-76
2021/12/05 13:13:02;;;;;;;113.15;101.47;;;;;;;2.59;100.00;100495.09;4949363;29;20047;-76
2021/12/05 13:15:36;;;;;;;120.13;107.40;;;;;;;2.67;100.00;100482.03;4943311;29;20491;-78
2021/12/05 13:18:18;;;;;;;120.50;107.95;;;;;;;2.71;100.00;100472.84;4945220;29;20051;-78
2021/12/05 13:20:52;;;;;;;121.40;106.90;;;;;;;2.67;100.00;100468.09;4948704;28;20066;-78
2021/12/05 13:23:31;;;;;;;118.50;105.90;;;;;;;2.59;100.00;100470.69;4959645;28;20044;-78
2021/12/05 13:26:07;;;;;;;118.63;103.43;;;;;;;2.58;100.00;100456.75;4959267;29;20055;-78
2021/12/05 13:28:37;;;;;;;121.55;108.15;;;;;;;2.64;100.00;100461.38;4954488;29;20070;-77
2021/12/05 13:31:38;;;;;;;117.30;103.63;;;;;;;2.69;100.00;100461.72;4947429;29;20051;-77
2021/12/05 13:34:24;;;;;;;112.50;100.85;;;;;;;2.79;100.00;100464.19;4952051;29;20051;-77
2021/12/05 13:36:55;;;;;;;139.30;125.45;;;;;;;3.85;100.00;100466.78;4950712;29;20484;-77
2021/12/05 13:39:38;;;;;;;118.78;105.85;;;;;;;2.98;100.00;100470.94;4949696;29;20118;-76
2021/12/05 13:42:14;;;;;;;117.80;95.45;;;;;;;2.75;100.00;100453.19;4953301;28;20134;-78
2021/12/05 13:45:07;;;;;;;147.15;116.45;;;;;;;2.75;100.00;100461.06;4951964;29;20400;-78
2021/12/05 13:47:39;;;;;;;131.65;110.50;;;;;;;2.67;100.00;100460.22;4949071;29;20051;-78
2021/12/05 13:50:29;;;;;;;131.30;111.87;;;;;;;2.51;100.00;100456.59;4954414;29;20054;-78
2021/12/05 13:52:59;;;;;;;144.52;121.68;;;;;;;2.60;100.00;100454.78;4949183;29;20302;-78
2021/12/05 13:55:39;;;;;;;196.55;150.25;;;;;;;2.48;100.00;100445.56;4952236;29;20472;-76
2021/12/05 13:58:23;;;;;;;165.80;132.88;;;;;;;2.47;100.00;100455.25;4951355;28;20083;-76
2021/12/05 14:00:59;;;;;;;233.63;164.88;;;;;;;2.55;100.00;100446.59;4955999;29;20396;-78
2021/12/05 14:04:04;;;;;;;419.60;228.23;;;;;;;2.51;100.00;100448.72;4955059;29;20051;-78
2021/12/05 14:06:38;;;;;;;387.50;261.40;;;;;;;2.58;100.00;100455.94;4950896;29;20138;-76
2021/12/05 14:09:10;;;;;;;213.95;148.25;;;;;;;2.60;100.00;100460.03;4951552;29;20054;-79
2021/12/05 14:11:42;;;;;;;777.60;368.45;;;;;;;2.45;100.00;100466.84;4953453;28;20047;-78
2021/12/05 14:14:09;;;;;;;710.55;333.48;;;;;;;2.62;100.00;100475.59;4949915;29;20044;-79
2021/12/05 14:16:39;;;;;;;1080.25;478.17;;;;;;;2.60;100.00;100473.13;4955256;29;20058;-76
2021/12/05 14:19:09;;;;;;;927.88;411.13;;;;;;;2.48;100.00;100477.03;4948497;29;20044;-79
2021/12/05 14:21:41;;;;;;;1742.82;754.97;;;;;;;2.52;100.00;100475.75;4950337;29;20051;-78
2021/12/05 14:24:11;;;;;;;249.07;156.90;;;;;;;2.59;100.00;100471.50;4951976;29;20047;-76
2021/12/05 14:26:40;;;;;;;255.20;172.98;;;;;;;2.47;100.00;100478.03;4961865;29;20081;-76
2021/12/05 14:29:11;;;;;;;1999.90;808.13;;;;;;;2.42;100.00;100485.53;4953287;29;20391;-77
2021/12/05 14:31:43;;;;;;;430.90;243.52;;;;;;;2.39;100.00;100499.78;4948239;28;20468;-75
2021/12/05 14:34:12;;;;;;;1561.95;586.13;;;;;;;2.44;100.00;100491.44;4953246;29;20096;-76
2021/12/05 14:36:44;;;;;;;1558.88;599.08;;;;;;;2.45;100.00;100501.78;4951472;29;20051;-75
2021/12/05 14:39:21;;;;;;;1131.95;493.75;;;;;;;2.26;100.00;100502.00;4951579;29;20134;-75
2021/12/05 14:41:52;;;;;;;185.20;124.88;;;;;;;2.24;100.00;100496.09;4946145;29;20048;-75
2021/12/05 14:44:21;;;;;;;162.10;125.57;;;;;;;2.09;100.00;100502.91;4949941;29;20083;-76
2021/12/05 14:47:03;;;;;;;134.57;118.82;;;;;;;2.19;100.00;100495.78;4952174;29;20047;-77
2021/12/05 14:49:35;;;;;;;341.40;183.43;;;;;;;2.13;100.00;100502.44;4951511;29;20063;-76
2021/12/05 14:52:02;;;;;;;435.42;211.80;;;;;;;2.13;100.00;100496.41;4955365;29;20066;-77
2021/12/05 14:54:33;;;;;;;126.68;103.75;;;;;;;1.98;100.00;100498.78;4957961;28;20047;-75
2021/12/05 14:57:06;;;;;;;263.90;155.65;;;;;;;1.89;100.00;100495.28;4956327;28;20035;-79
2021/12/05 14:59:33;;;;;;;125.72;106.25;;;;;;;1.91;100.00;100489.91;4956131;29;20475;-79
2021/12/05 15:02:00;;;;;;;127.82;112.80;;;;;;;1.91;100.00;100492.53;4955699;29;20465;-76
2021/12/05 15:04:31;;;;;;;354.33;231.55;;;;;;;1.99;100.00;100487.31;4946495;29;20125;-75
2021/12/05 15:06:59;;;;;;;139.02;118.82;;;;;;;1.92;100.00;100502.00;4956767;29;20067;-77
2021/12/05 15:09:30;;;;;;;164.02;133.73;;;;;;;2.04;100.00;100500.78;4952438;29;20055;-77
2021/12/05 15:12:02;;;;;;;124.97;112.22;;;;;;;1.80;100.00;100498.81;4955404;29;20051;-75
2021/12/05 15:14:30;;;;;;;131.32;116.75;;;;;;;1.82;100.00;100502.94;4953305;29;20051;-78
2021/12/05 15:17:02;;;;;;;119.45;106.50;;;;;;;1.89;100.00;100500.50;4955042;29;20055;-79
2021/12/05 15:19:29;;;;;;;122.03;108.65;;;;;;;1.93;100.00;100498.41;4958917;29;20058;-75